Time;durP1;ratioP1;P1;durP2;ratioP2;P2;SDS_P1;SDS_P2;PMS_P1;PMS_P2;Temp;Humidity;BMP_temperature;BMP_pressure;BME280_temperature;BME280_humidity;BME280_pressure;Samples;Min_cycle;Max_cycle;Signal;HPM_P1;HPM_P2
2023/07/16 00:01:48;;;;;;;11.60;2.22;;;16.80;99.90;;;;;;4994730;28;20285;-76
2023/07/16 00:04:19;;;;;;;8.50;1.73;;;16.80;99.90;;;;;;4996003;28;20569;-76
2023/07/16 00:06:50;;;;;;;10.20;2.05;;;16.80;99.90;;;;;;4991925;28;20200;-75
2023/07/16 00:09:22;;;;;;;9.02;2.20;;;16.90;99.90;;;;;;4993213;28;20226;-76
2023/07/16 00:11:55;;;;;;;13.50;2.10;;;16.90;99.90;;;;;;4995810;28;20279;-76
2023/07/16 00:14:26;;;;;;;10.35;2.17;;;17.00;99.90;;;;;;4994108;28;20206;-76
2023/07/16 00:16:57;;;;;;;5.60;1.90;;;17.10;99.90;;;;;;4995677;28;20686;-76
2023/07/16 00:19:28;;;;;;;8.82;2.20;;;17.10;99.90;;;;;;4992793;28;21519;-76
2023/07/16 00:21:59;;;;;;;11.35;2.60;;;17.20;99.90;;;;;;4994758;28;20204;-76
2023/07/16 00:24:30;;;;;;;12.98;2.50;;;17.30;99.90;;;;;;4995634;28;20192;-76
2023/07/16 00:27:03;;;;;;;9.13;2.20;;;17.30;99.90;;;;;;4993047;28;20627;-75
2023/07/16 00:29:35;;;;;;;8.93;2.50;;;17.40;99.90;;;;;;4995528;28;20194;-76
2023/07/16 00:32:06;;;;;;;10.93;2.63;;;17.40;99.90;;;;;;4995791;28;20241;-76
2023/07/16 00:34:37;;;;;;;7.63;2.58;;;17.40;99.90;;;;;;4995190;28;20550;-76
2023/07/16 00:37:08;;;;;;;8.05;2.83;;;17.50;99.90;;;;;;4994190;28;20203;-76
2023/07/16 00:39:39;;;;;;;12.48;2.88;;;17.40;99.90;;;;;;4994634;28;20235;-76
2023/07/16 00:42:13;;;;;;;9.57;2.80;;;17.30;99.90;;;;;;4994232;28;20196;-76
2023/07/16 00:44:44;;;;;;;11.52;2.63;;;17.20;99.90;;;;;;4975913;28;20188;-76
2023/07/16 00:47:15;;;;;;;12.55;2.90;;;17.20;99.90;;;;;;4993311;28;20191;-76
2023/07/16 00:49:47;;;;;;;11.98;3.58;;;17.20;99.90;;;;;;4994862;28;20219;-76
2023/07/16 00:52:21;;;;;;;10.05;3.03;;;17.20;99.90;;;;;;4995097;28;20192;-76
2023/07/16 00:54:53;;;;;;;11.18;2.92;;;17.20;99.90;;;;;;4993844;28;20249;-76
2023/07/16 00:57:26;;;;;;;10.68;3.10;;;17.10;99.90;;;;;;4993529;28;20207;-76
2023/07/16 00:59:57;;;;;;;7.85;3.08;;;17.10;99.90;;;;;;4994842;28;20216;-75
2023/07/16 01:02:28;;;;;;;13.20;3.05;;;17.00;99.90;;;;;;4956210;28;20280;-75
2023/07/16 01:05:00;;;;;;;10.18;2.50;;;17.00;99.90;;;;;;4955016;28;20209;-76
2023/07/16 01:07:33;;;;;;;12.93;3.20;;;17.10;99.90;;;;;;4955958;28;20236;-76
2023/07/16 01:10:17;;;;;;;10.88;3.03;;;17.00;99.90;;;;;;5111378;27;20998;-76
2023/07/16 01:12:49;;;;;;;8.95;2.60;;;17.10;99.90;;;;;;5095987;28;20691;-76
2023/07/16 01:15:20;;;;;;;8.40;2.90;;;17.10;99.90;;;;;;5082601;28;20196;-75
2023/07/16 01:17:51;;;;;;;11.07;2.92;;;17.20;99.90;;;;;;5083641;28;20197;-75
2023/07/16 01:20:23;;;;;;;8.50;2.70;;;17.20;99.90;;;;;;5079082;28;20187;-76
2023/07/16 01:23:15;;;;;;;11.23;3.03;;;17.30;99.90;;;;;;5079311;28;20228;-75
2023/07/16 01:26:21;;;;;;;7.57;2.30;;;17.40;99.90;;;;;;5089805;28;20207;-76
2023/07/16 01:29:12;;;;;;;11.80;2.80;;;17.50;99.90;;;;;;5081327;28;20215;-75
2023/07/16 01:31:45;;;;;;;11.77;2.40;;;17.60;99.90;;;;;;5083076;28;20200;-75
2023/07/16 01:34:18;;;;;;;12.85;3.00;;;17.60;99.90;;;;;;5073774;28;20203;-76
2023/07/16 01:36:50;;;;;;;12.50;2.30;;;17.60;99.90;;;;;;5092759;28;20196;-75
2023/07/16 01:39:22;;;;;;;11.07;2.88;;;17.70;99.90;;;;;;5071292;28;20569;-76
2023/07/16 01:41:53;;;;;;;9.80;2.20;;;17.80;99.90;;;;;;5077351;28;20986;-75
2023/07/16 01:44:26;;;;;;;6.78;2.28;;;17.80;99.90;;;;;;5087725;28;20203;-75
2023/07/16 01:47:11;;;;;;;8.20;2.35;;;17.90;99.90;;;;;;5070504;28;20201;-76
2023/07/16 01:49:43;;;;;;;14.05;2.40;;;17.90;99.90;;;;;;5077058;28;20229;-76
2023/07/16 01:52:14;;;;;;;10.60;1.90;;;17.90;99.90;;;;;;5077756;28;20556;-76
2023/07/16 01:54:45;;;;;;;9.40;1.90;;;17.90;99.90;;;;;;5084699;28;20200;-76
2023/07/16 01:57:16;;;;;;;10.32;1.92;;;17.90;99.90;;;;;;5080912;28;20709;-76
2023/07/16 01:59:49;;;;;;;6.53;1.83;;;17.90;99.90;;;;;;5081232;28;20276;-77
2023/07/16 02:02:21;;;;;;;14.73;2.38;;;17.90;99.90;;;;;;5086648;28;20560;-76
2023/07/16 02:04:52;;;;;;;9.45;1.95;;;17.90;99.90;;;;;;5068636;28;20203;-76
2023/07/16 02:07:24;;;;;;;6.35;2.10;;;17.90;99.90;;;;;;5077414;28;20288;-76
2023/07/16 02:09:55;;;;;;;14.70;2.45;;;17.90;99.90;;;;;;5082396;28;20243;-76
2023/07/16 02:12:26;;;;;;;11.90;2.65;;;17.90;99.90;;;;;;5078505;28;20189;-76
2023/07/16 02:14:59;;;;;;;9.07;2.10;;;17.90;99.90;;;;;;5068594;28;20206;-76
2023/07/16 02:17:30;;;;;;;11.38;2.13;;;17.90;99.90;;;;;;5087177;28;20196;-76
2023/07/16 02:20:02;;;;;;;10.43;2.05;;;17.90;99.90;;;;;;5063064;28;20669;-76
2023/07/16 02:22:33;;;;;;;11.23;1.75;;;17.90;99.90;;;;;;5055327;28;20268;-76
2023/07/16 02:25:04;;;;;;;9.65;1.83;;;17.90;99.90;;;;;;5055191;28;20201;-76
2023/07/16 02:27:35;;;;;;;8.85;1.60;;;17.90;99.90;;;;;;5057370;28;20208;-76
2023/07/16 02:30:09;;;;;;;10.00;1.60;;;17.80;99.90;;;;;;5070913;28;20216;-76
2023/07/16 02:32:40;;;;;;;10.07;1.83;;;17.80;99.90;;;;;;5067148;28;20283;-76
2023/07/16 02:35:12;;;;;;;10.35;2.10;;;17.80;99.90;;;;;;5056276;28;20213;-76
2023/07/16 02:37:43;;;;;;;8.13;1.60;;;17.80;99.90;;;;;;5066851;28;20888;-76
2023/07/16 02:40:14;;;;;;;9.27;1.88;;;17.80;99.90;;;;;;5070971;28;20197;-75
2023/07/16 02:42:45;;;;;;;8.57;1.70;;;17.80;99.90;;;;;;5064002;28;20193;-76
2023/07/16 02:45:18;;;;;;;8.32;1.98;;;17.80;99.90;;;;;;5072878;28;20643;-76
2023/07/16 02:47:49;;;;;;;7.93;1.95;;;17.90;99.90;;;;;;5054147;28;20197;-76
2023/07/16 02:50:21;;;;;;;8.48;1.92;;;17.90;99.90;;;;;;5054803;28;20237;-76
2023/07/16 02:52:52;;;;;;;6.97;2.10;;;18.00;99.90;;;;;;5055281;28;20186;-76
2023/07/16 02:55:23;;;;;;;7.63;2.00;;;18.00;99.90;;;;;;5053531;28;20205;-75
2023/07/16 02:57:54;;;;;;;12.70;2.30;;;18.10;99.90;;;;;;5055338;28;20205;-75
2023/07/16 03:00:27;;;;;;;8.40;1.90;;;18.10;99.90;;;;;;5054937;28;20209;-76
2023/07/16 03:02:58;;;;;;;11.43;2.20;;;18.20;99.90;;;;;;5055395;28;20189;-76
2023/07/16 03:05:30;;;;;;;8.35;2.03;;;18.20;99.90;;;;;;5054884;28;20198;-76
2023/07/16 03:08:01;;;;;;;8.25;1.92;;;18.10;99.90;;;;;;5054921;28;20248;-76
2023/07/16 03:10:32;;;;;;;8.70;1.90;;;18.10;99.90;;;;;;5055453;28;20228;-76
2023/07/16 03:13:03;;;;;;;11.75;2.15;;;18.00;99.90;;;;;;5054739;28;20220;-75
2023/07/16 03:15:39;;;;;;;10.48;2.45;;;18.00;99.90;;;;;;5054570;28;20664;-76
2023/07/16 03:18:10;;;;;;;7.03;1.85;;;17.90;99.90;;;;;;5055135;28;20199;-75
2023/07/16 03:20:41;;;;;;;7.82;1.92;;;17.90;99.90;;;;;;5055098;28;20217;-75
2023/07/16 03:23:12;;;;;;;4.43;1.63;;;17.80;99.90;;;;;;5054379;28;20197;-76
2023/07/16 03:25:43;;;;;;;8.80;1.90;;;17.70;99.90;;;;;;5054458;28;20197;-76
2023/07/16 03:28:14;;;;;;;7.82;1.75;;;17.60;99.90;;;;;;5054421;28;20208;-76
2023/07/16 03:30:49;;;;;;;6.05;2.03;;;17.60;99.90;;;;;;5054207;28;20677;-76
2023/07/16 03:33:21;;;;;;;7.55;1.65;;;17.50;99.90;;;;;;5053856;28;20551;-76
2023/07/16 03:35:53;;;;;;;6.85;1.70;;;17.50;99.90;;;;;;5051657;28;20193;-76
2023/07/16 03:38:24;;;;;;;8.38;1.90;;;17.40;99.90;;;;;;5053918;28;20205;-76
2023/07/16 03:40:55;;;;;;;9.48;1.92;;;17.40;99.90;;;;;;5054586;28;20688;-76
2023/07/16 03:43:26;;;;;;;7.70;1.65;;;17.40;99.90;;;;;;5054857;28;20197;-75
2023/07/16 03:45:59;;;;;;;9.02;1.80;;;17.40;99.90;;;;;;5054493;28;20185;-76
2023/07/16 03:48:30;;;;;;;6.60;1.70;;;17.30;99.90;;;;;;5054402;28;20925;-76
2023/07/16 03:51:01;;;;;;;8.38;2.25;;;17.30;99.90;;;;;;5053102;28;20201;-76
2023/07/16 03:53:32;;;;;;;8.18;2.35;;;17.20;99.90;;;;;;5053456;28;20201;-76
2023/07/16 03:56:03;;;;;;;9.07;2.55;;;17.10;99.90;;;;;;5054612;28;20190;-76
2023/07/16 03:58:34;;;;;;;8.85;2.15;;;17.10;99.90;;;;;;5054326;28;20197;-76
2023/07/16 04:01:08;;;;;;;8.68;2.15;;;17.10;99.90;;;;;;5055031;28;20194;-76
2023/07/16 04:03:39;;;;;;;9.38;2.03;;;17.00;99.90;;;;;;5053988;28;20197;-76
2023/07/16 04:06:11;;;;;;;7.20;1.67;;;17.00;99.90;;;;;;5054009;28;20190;-76
2023/07/16 04:08:42;;;;;;;9.68;1.95;;;16.90;99.90;;;;;;5052213;28;20300;-76
2023/07/16 04:11:13;;;;;;;7.72;1.60;;;16.80;99.90;;;;;;5053951;28;20193;-76
2023/07/16 04:13:44;;;;;;;12.85;2.20;;;16.80;99.90;;;;;;5053178;28;20576;-76
2023/07/16 04:16:17;;;;;;;8.15;2.05;;;16.80;99.90;;;;;;5053864;28;20200;-76
2023/07/16 04:18:48;;;;;;;9.13;1.63;;;16.80;99.90;;;;;;5052971;28;20213;-76
2023/07/16 04:21:20;;;;;;;8.35;1.65;;;16.80;99.90;;;;;;5053239;28;20202;-76
2023/07/16 04:23:51;;;;;;;7.32;1.77;;;16.70;99.90;;;;;;5053352;28;20228;-76
2023/07/16 04:26:22;;;;;;;8.77;1.98;;;16.70;99.90;;;;;;5053818;28;20190;-75
2023/07/16 04:28:53;;;;;;;11.00;2.35;;;16.70;99.90;;;;;;5053641;28;20194;-75
2023/07/16 04:31:26;;;;;;;6.68;1.90;;;16.70;99.90;;;;;;5053705;28;20186;-76
2023/07/16 04:33:57;;;;;;;12.13;2.20;;;16.70;99.90;;;;;;5052582;28;20254;-75
2023/07/16 04:36:29;;;;;;;8.73;2.50;;;16.70;99.90;;;;;;5053742;28;20194;-76
2023/07/16 04:39:00;;;;;;;8.70;2.50;;;16.70;99.90;;;;;;5053620;28;20201;-76
2023/07/16 04:41:31;;;;;;;10.88;2.63;;;16.80;99.90;;;;;;5053040;28;20208;-76
2023/07/16 04:44:02;;;;;;;12.15;2.55;;;16.80;99.90;;;;;;5053635;28;20193;-75
2023/07/16 04:46:35;;;;;;;6.90;2.20;;;16.80;99.90;;;;;;5064241;28;20653;-76
2023/07/16 04:49:08;;;;;;;8.05;2.15;;;16.90;99.90;;;;;;5073171;28;20243;-76
2023/07/16 04:51:39;;;;;;;8.05;2.10;;;16.80;99.90;;;;;;5073876;28;20653;-76
2023/07/16 04:54:10;;;;;;;8.32;2.00;;;16.80;99.90;;;;;;5073428;28;20192;-76
2023/07/16 04:56:41;;;;;;;7.13;2.10;;;16.80;99.90;;;;;;5055464;28;20196;-75
2023/07/16 04:59:12;;;;;;;6.28;2.03;;;16.80;99.90;;;;;;5052982;28;20201;-76
2023/07/16 05:01:45;;;;;;;5.68;1.88;;;16.80;99.90;;;;;;5053312;28;20197;-76
2023/07/16 05:04:16;;;;;;;5.13;1.67;;;16.80;99.90;;;;;;5052998;28;20196;-76
2023/07/16 05:06:47;;;;;;;7.55;1.73;;;16.70;99.90;;;;;;5053213;28;20193;-76
2023/07/16 05:09:20;;;;;;;7.43;1.75;;;16.60;99.90;;;;;;5052970;28;20237;-76
2023/07/16 05:11:51;;;;;;;7.18;1.83;;;16.60;99.90;;;;;;5052250;28;20251;-75
2023/07/16 05:14:22;;;;;;;4.93;1.60;;;16.60;99.90;;;;;;5053220;28;20577;-76
2023/07/16 05:16:55;;;;;;;8.85;2.30;;;16.50;99.90;;;;;;5053108;28;20193;-76
2023/07/16 05:19:26;;;;;;;8.13;2.17;;;16.50;99.90;;;;;;5052660;28;20209;-76
2023/07/16 05:21:57;;;;;;;8.02;2.13;;;16.50;99.90;;;;;;5053110;28;20193;-75
2023/07/16 05:24:28;;;;;;;7.03;2.17;;;16.40;99.90;;;;;;5053193;28;20197;-76
2023/07/16 05:26:59;;;;;;;9.73;2.10;;;16.40;99.90;;;;;;5052935;28;20641;-76
2023/07/16 05:29:30;;;;;;;10.40;2.30;;;16.40;99.90;;;;;;5068757;28;20213;-76
2023/07/16 05:32:04;;;;;;;7.97;1.88;;;16.40;99.90;;;;;;5069565;28;20193;-76
2023/07/16 05:34:35;;;;;;;8.18;2.30;;;16.40;99.90;;;;;;5053275;28;20531;-76
2023/07/16 05:37:06;;;;;;;8.15;1.98;;;16.30;99.90;;;;;;5069454;28;20196;-76
2023/07/16 05:39:37;;;;;;;7.50;1.88;;;16.30;99.90;;;;;;5060667;28;20664;-75
2023/07/16 05:42:09;;;;;;;6.97;2.20;;;16.20;99.90;;;;;;5073165;28;20197;-75
2023/07/16 05:44:40;;;;;;;7.13;2.20;;;16.30;99.90;;;;;;5071077;28;20186;-76
2023/07/16 05:47:13;;;;;;;7.90;2.20;;;16.20;99.90;;;;;;5052177;28;20202;-75
2023/07/16 05:49:44;;;;;;;10.23;2.20;;;16.20;99.90;;;;;;5052764;28;20693;-75
2023/07/16 05:52:15;;;;;;;9.82;2.40;;;16.20;99.90;;;;;;5052760;28;20654;-75
2023/07/16 05:54:48;;;;;;;9.15;2.30;;;16.20;99.90;;;;;;5052013;28;20197;-76
2023/07/16 05:57:19;;;;;;;6.28;2.60;;;16.10;99.90;;;;;;5070219;28;20288;-75
2023/07/16 05:59:50;;;;;;;9.10;3.03;;;16.10;99.90;;;;;;5076587;28;20201;-75
2023/07/16 06:02:23;;;;;;;10.23;3.13;;;16.00;99.90;;;;;;5070243;28;20201;-76
2023/07/16 06:04:54;;;;;;;10.13;2.70;;;16.00;99.90;;;;;;5073209;28;20193;-75
2023/07/16 06:07:25;;;;;;;7.93;2.78;;;16.00;99.90;;;;;;5062975;28;20684;-76
2023/07/16 06:09:56;;;;;;;11.48;2.78;;;16.00;99.90;;;;;;5055562;28;20240;-75
2023/07/16 06:12:27;;;;;;;7.07;2.40;;;16.00;99.90;;;;;;5055008;28;20763;-76
2023/07/16 06:14:59;;;;;;;7.50;2.50;;;15.90;99.90;;;;;;5064365;28;20272;-76
2023/07/16 06:17:32;;;;;;;7.90;2.92;;;15.90;99.90;;;;;;5054656;28;20645;-75
2023/07/16 06:20:03;;;;;;;9.10;2.80;;;15.90;99.90;;;;;;5059029;28;20200;-76
2023/07/16 06:22:34;;;;;;;11.27;2.90;;;15.90;99.90;;;;;;5075236;28;20189;-75
2023/07/16 06:25:05;;;;;;;8.65;2.63;;;15.80;99.90;;;;;;5064276;28;20193;-75
2023/07/16 06:27:36;;;;;;;9.38;2.80;;;15.80;99.90;;;;;;5056259;28;20222;-76
2023/07/16 06:30:08;;;;;;;9.50;2.33;;;15.80;99.90;;;;;;5062778;28;20213;-75
2023/07/16 06:32:41;;;;;;;18.88;3.88;;;15.70;99.90;;;;;;5072756;28;20211;-76
2023/07/16 06:35:12;;;;;;;10.77;2.30;;;15.80;99.90;;;;;;5060222;28;20641;-76
2023/07/16 06:37:44;;;;;;;8.63;2.28;;;15.70;99.90;;;;;;5068767;28;22155;-76
2023/07/16 06:40:15;;;;;;;5.45;2.00;;;15.70;99.90;;;;;;5070773;28;20204;-76
2023/07/16 06:42:46;;;;;;;8.90;2.60;;;15.70;99.90;;;;;;5074122;28;20209;-75
2023/07/16 06:45:17;;;;;;;9.07;2.55;;;15.70;99.90;;;;;;5069286;28;20201;-76
2023/07/16 06:47:50;;;;;;;7.53;2.13;;;15.70;99.90;;;;;;5072747;28;20193;-76
2023/07/16 06:50:22;;;;;;;8.95;2.55;;;15.70;99.90;;;;;;5066473;28;20237;-76
2023/07/16 06:52:53;;;;;;;9.45;2.28;;;15.60;99.90;;;;;;5060251;28;20202;-75
2023/07/16 06:55:24;;;;;;;5.50;2.28;;;15.70;99.90;;;;;;5058842;28;20665;-76
2023/07/16 06:57:55;;;;;;;10.00;2.28;;;15.60;99.90;;;;;;5072273;28;20189;-76
2023/07/16 07:00:26;;;;;;;6.00;2.15;;;15.60;99.90;;;;;;5066757;28;20213;-76
2023/07/16 07:02:59;;;;;;;6.05;2.00;;;15.60;99.90;;;;;;5071476;28;20668;-76
2023/07/16 07:05:30;;;;;;;6.18;2.05;;;15.60;99.90;;;;;;5071026;28;20200;-76
2023/07/16 07:08:01;;;;;;;8.18;2.15;;;15.50;99.90;;;;;;5066993;28;20215;-76
2023/07/16 07:10:32;;;;;;;7.18;2.40;;;15.50;99.90;;;;;;5072995;28;20684;-76
2023/07/16 07:13:03;;;;;;;8.68;2.90;;;15.50;99.90;;;;;;5065360;28;20201;-75
2023/07/16 07:15:34;;;;;;;10.02;2.92;;;15.50;99.90;;;;;;5074027;28;20206;-76
2023/07/16 07:18:08;;;;;;;10.07;3.17;;;15.40;99.90;;;;;;5075727;28;20196;-75
2023/07/16 07:20:39;;;;;;;7.10;3.38;;;15.40;99.90;;;;;;5069028;28;20671;-75
2023/07/16 07:23:10;;;;;;;7.30;2.38;;;15.40;99.90;;;;;;5063345;28;20197;-76
2023/07/16 07:25:41;;;;;;;7.45;2.53;;;15.30;99.90;;;;;;5064418;28;20192;-76
2023/07/16 07:28:12;;;;;;;11.43;2.95;;;15.20;99.90;;;;;;5069276;28;20205;-76
2023/07/16 07:30:43;;;;;;;5.55;2.35;;;15.20;99.90;;;;;;5058782;28;20210;-75
2023/07/16 07:33:16;;;;;;;7.03;2.75;;;15.20;99.90;;;;;;5063509;28;20198;-76
2023/07/16 07:35:48;;;;;;;7.45;2.80;;;15.20;99.90;;;;;;5055483;28;20561;-76
2023/07/16 07:38:19;;;;;;;9.15;3.63;;;15.20;99.90;;;;;;5063628;28;20555;-75
2023/07/16 07:40:50;;;;;;;7.90;3.40;;;15.20;99.90;;;;;;5071397;28;20197;-76
2023/07/16 07:43:21;;;;;;;8.57;4.07;;;15.20;99.90;;;;;;5069450;28;20196;-76
2023/07/16 07:45:52;;;;;;;9.65;4.30;;;15.20;99.90;;;;;;5064699;28;20219;-76
2023/07/16 07:48:25;;;;;;;8.80;4.35;;;15.20;99.90;;;;;;5073277;28;20229;-75
2023/07/16 07:50:56;;;;;;;6.85;3.80;;;15.30;99.90;;;;;;5072546;28;20213;-75
2023/07/16 07:53:27;;;;;;;7.15;3.28;;;15.30;99.90;;;;;;5070974;28;20204;-75
2023/07/16 07:55:59;;;;;;;7.05;3.45;;;15.20;99.90;;;;;;5070542;28;20200;-75
2023/07/16 07:58:30;;;;;;;10.73;2.95;;;15.30;99.90;;;;;;5057370;28;20197;-75
2023/07/16 08:01:06;;;;;;;6.43;2.95;;;15.30;99.90;;;;;;5065516;28;20201;-76
2023/07/16 08:03:39;;;;;;;7.80;3.25;;;15.30;99.90;;;;;;5062017;28;20200;-75
2023/07/16 08:06:11;;;;;;;4.95;2.70;;;15.30;99.90;;;;;;5069357;28;20197;-75
2023/07/16 08:08:42;;;;;;;6.55;2.67;;;15.30;99.90;;;;;;5071694;28;20237;-75
2023/07/16 08:11:14;;;;;;;6.53;2.80;;;15.30;99.90;;;;;;5068224;28;20219;-75
2023/07/16 08:13:45;;;;;;;6.00;2.50;;;15.30;99.90;;;;;;5054822;28;20232;-76
2023/07/16 08:16:16;;;;;;;7.63;2.83;;;15.30;99.90;;;;;;5067152;28;20570;-75
2023/07/16 08:18:49;;;;;;;8.10;3.28;;;15.30;99.90;;;;;;5064789;28;20860;-75
2023/07/16 08:21:21;;;;;;;7.68;3.47;;;15.30;99.90;;;;;;5058656;28;20202;-75
2023/07/16 08:23:53;;;;;;;9.38;3.53;;;15.30;99.90;;;;;;5059727;28;20193;-75
2023/07/16 08:26:24;;;;;;;6.88;3.35;;;15.30;99.90;;;;;;5063305;28;20189;-75
2023/07/16 08:28:55;;;;;;;8.25;3.35;;;15.30;99.90;;;;;;5060831;28;20242;-75
2023/07/16 08:31:26;;;;;;;7.25;3.08;;;15.20;99.90;;;;;;5061007;28;20227;-76
2023/07/16 08:33:59;;;;;;;6.35;3.30;;;15.20;99.90;;;;;;5057345;28;20209;-75
2023/07/16 08:36:30;;;;;;;10.55;3.88;;;15.20;99.90;;;;;;5060495;28;20209;-75
2023/07/16 08:39:01;;;;;;;9.43;3.58;;;15.20;99.90;;;;;;5065675;28;20193;-75
2023/07/16 08:41:32;;;;;;;10.50;3.95;;;15.20;99.90;;;;;;5061567;28;20201;-75
2023/07/16 08:44:04;;;;;;;11.45;4.38;;;15.20;99.90;;;;;;5072383;28;20648;-75
2023/07/16 08:46:35;;;;;;;8.05;3.80;;;15.20;99.90;;;;;;5073393;28;20279;-75
2023/07/16 08:49:10;;;;;;;7.43;3.90;;;15.20;99.90;;;;;;5066542;28;20217;-75
2023/07/16 08:51:42;;;;;;;8.02;3.90;;;15.20;99.90;;;;;;5062348;28;20212;-75
2023/07/16 08:54:15;;;;;;;8.93;4.05;;;15.10;99.90;;;;;;5065618;28;20687;-75
2023/07/16 08:56:46;;;;;;;12.65;4.35;;;15.20;99.90;;;;;;5055649;28;20669;-75
2023/07/16 08:59:18;;;;;;;8.10;4.15;;;15.20;99.90;;;;;;5056255;28;20365;-74
2023/07/16 09:01:50;;;;;;;9.02;4.18;;;15.20;99.90;;;;;;5067496;28;20205;-74
2023/07/16 09:04:24;;;;;;;8.02;3.92;;;15.20;99.90;;;;;;5067410;28;20594;-74
2023/07/16 09:06:55;;;;;;;9.18;4.30;;;15.30;99.90;;;;;;5072877;28;20569;-74
2023/07/16 09:09:26;;;;;;;10.05;4.20;;;15.30;99.90;;;;;;5066782;28;20225;-74
2023/07/16 09:11:57;;;;;;;10.82;4.03;;;15.30;99.90;;;;;;5070945;28;20213;-75
2023/07/16 09:14:29;;;;;;;10.02;4.53;;;15.30;99.90;;;;;;5064306;28;20207;-75
2023/07/16 09:17:00;;;;;;;11.10;4.72;;;15.30;99.90;;;;;;5064897;28;20571;-75
2023/07/16 09:19:36;;;;;;;9.85;5.13;;;15.30;99.90;;;;;;5053740;28;20202;-75
2023/07/16 09:22:07;;;;;;;11.02;5.15;;;15.30;99.90;;;;;;5062852;28;20224;-75
2023/07/16 09:24:40;;;;;;;8.88;4.95;;;15.30;99.90;;;;;;5068458;28;20200;-75
2023/07/16 09:27:15;;;;;;;10.45;4.90;;;15.20;99.90;;;;;;5066577;28;20192;-75
2023/07/16 09:29:46;;;;;;;12.68;5.43;;;15.20;99.90;;;;;;5070724;28;20199;-75
2023/07/16 09:32:17;;;;;;;11.25;5.55;;;15.20;99.90;;;;;;5073140;28;20227;-75
2023/07/16 09:34:54;;;;;;;11.68;5.30;;;15.20;99.90;;;;;;5063188;28;20201;-75
2023/07/16 09:37:25;;;;;;;11.40;5.30;;;15.20;99.90;;;;;;5076103;28;20253;-75
2023/07/16 09:39:57;;;;;;;14.70;5.90;;;15.20;99.90;;;;;;5062821;28;20215;-75
2023/07/16 09:42:28;;;;;;;8.25;4.85;;;15.20;99.90;;;;;;5063494;28;20653;-75
2023/07/16 09:45:01;;;;;;;11.10;5.30;;;15.20;99.90;;;;;;5064494;28;20560;-75
2023/07/16 09:47:32;;;;;;;11.15;5.35;;;15.20;99.90;;;;;;5071028;28;20194;-75
2023/07/16 09:50:06;;;;;;;9.57;5.03;;;15.20;99.90;;;;;;5065142;28;20228;-75
2023/07/16 09:52:37;;;;;;;11.63;5.60;;;15.20;99.90;;;;;;5066923;28;20213;-75
2023/07/16 09:55:11;;;;;;;11.18;5.10;;;15.20;99.90;;;;;;5062236;28;20684;-75
2023/07/16 09:57:44;;;;;;;7.95;4.78;;;15.20;99.90;;;;;;5073087;28;20656;-76
2023/07/16 10:00:17;;;;;;;15.52;5.43;;;15.20;99.90;;;;;;5071414;28;20208;-75
2023/07/16 10:02:49;;;;;;;10.57;4.75;;;15.20;99.90;;;;;;5062509;28;20200;-75
2023/07/16 10:05:27;;;;;;;11.07;4.90;;;15.20;99.90;;;;;;5071496;28;20205;-76
2023/07/16 10:08:00;;;;;;;11.90;4.93;;;15.20;99.90;;;;;;5070173;28;20196;-75
2023/07/16 10:10:42;;;;;;;11.32;4.43;;;15.10;99.90;;;;;;5068924;28;20197;-75
2023/07/16 10:13:16;;;;;;;10.43;4.97;;;15.10;99.90;;;;;;5062725;28;20194;-76
2023/07/16 10:15:58;;;;;;;11.40;4.97;;;15.10;99.90;;;;;;5060080;28;20193;-76
2023/07/16 10:18:37;;;;;;;12.07;4.53;;;15.10;99.90;;;;;;5073237;28;20216;-76
2023/07/16 10:21:11;;;;;;;9.65;5.20;;;15.10;99.90;;;;;;5071904;28;20690;-75
2023/07/16 10:23:44;;;;;;;8.23;4.72;;;15.10;99.90;;;;;;5073613;28;20208;-76
2023/07/16 10:26:17;;;;;;;10.85;4.90;;;15.10;99.90;;;;;;5064629;28;20193;-75
2023/07/16 10:28:49;;;;;;;11.95;5.03;;;15.10;99.90;;;;;;5059938;28;20193;-75
2023/07/16 10:31:26;;;;;;;13.55;5.22;;;15.10;99.90;;;;;;5062136;28;20209;-76
2023/07/16 10:34:04;;;;;;;10.50;5.82;;;15.10;99.90;;;;;;5073058;28;20283;-76
2023/07/16 10:36:43;;;;;;;12.15;6.20;;;15.10;99.90;;;;;;5054932;28;20197;-76
2023/07/16 10:39:14;;;;;;;12.90;6.20;;;15.10;99.90;;;;;;5060246;28;20272;-76
2023/07/16 10:41:45;;;;;;;13.20;5.55;;;15.10;99.90;;;;;;5062276;28;20197;-76
2023/07/16 10:44:18;;;;;;;11.50;5.63;;;15.10;99.90;;;;;;5065090;28;20192;-76
2023/07/16 10:46:49;;;;;;;13.27;5.90;;;15.10;99.90;;;;;;5057152;28;20653;-75
2023/07/16 10:49:30;;;;;;;10.90;5.72;;;15.10;99.90;;;;;;5069070;28;20223;-76
2023/07/16 10:52:05;;;;;;;10.90;5.50;;;15.10;99.90;;;;;;5077236;28;20216;-76
2023/07/16 10:54:36;;;;;;;11.00;5.60;;;15.10;99.90;;;;;;5080003;28;20193;-75
2023/07/16 10:57:08;;;;;;;13.60;5.90;;;15.10;99.90;;;;;;5075136;28;20193;-75
2023/07/16 10:59:43;;;;;;;12.70;6.00;;;15.10;99.90;;;;;;5061766;28;20201;-76
2023/07/16 11:02:15;;;;;;;10.30;6.22;;;15.10;99.90;;;;;;5056569;28;20609;-76
2023/07/16 11:04:48;;;;;;;12.70;5.88;;;15.00;99.90;;;;;;5069647;28;20197;-76
2023/07/16 11:07:21;;;;;;;12.55;5.82;;;15.10;99.90;;;;;;5055182;28;20197;-76
2023/07/16 11:09:53;;;;;;;13.57;6.28;;;15.00;99.90;;;;;;5062791;28;20216;-76
2023/07/16 11:12:26;;;;;;;12.23;6.20;;;15.00;99.90;;;;;;5074960;28;20217;-75
2023/07/16 11:14:58;;;;;;;14.15;6.18;;;15.00;99.90;;;;;;5075444;28;20551;-75
2023/07/16 11:17:30;;;;;;;11.48;5.95;;;15.00;99.90;;;;;;5075346;28;20196;-75
2023/07/16 11:20:06;;;;;;;13.52;6.30;;;15.00;99.90;;;;;;5062590;28;20236;-76
2023/07/16 11:22:41;;;;;;;12.70;6.10;;;15.00;99.90;;;;;;5054705;28;20201;-77
2023/07/16 11:25:18;;;;;;;14.45;6.20;;;15.00;99.90;;;;;;5055674;28;20664;-76
2023/07/16 11:27:50;;;;;;;10.00;5.63;;;15.00;99.90;;;;;;5053700;28;20201;-77
2023/07/16 11:30:27;;;;;;;13.43;6.55;;;15.00;99.90;;;;;;5054987;28;20193;-76
2023/07/16 11:33:00;;;;;;;10.93;5.65;;;15.00;99.90;;;;;;5054303;28;20299;-76
2023/07/16 11:35:32;;;;;;;12.55;5.75;;;15.00;99.90;;;;;;5054400;28;20208;-76
2023/07/16 11:38:07;;;;;;;12.85;6.13;;;15.00;99.90;;;;;;5074653;28;20250;-76
2023/07/16 11:40:39;;;;;;;10.70;5.82;;;15.00;99.90;;;;;;5074613;28;20189;-76
2023/07/16 11:43:14;;;;;;;12.50;5.72;;;15.00;99.90;;;;;;5074465;28;20371;-76
2023/07/16 11:45:52;;;;;;;10.35;5.50;;;15.00;99.90;;;;;;5074399;28;20204;-76
2023/07/16 11:48:25;;;;;;;15.52;6.13;;;15.00;99.90;;;;;;5066809;28;20239;-76
2023/07/16 11:50:57;;;;;;;11.40;6.07;;;14.90;99.90;;;;;;5085656;28;20207;-76
2023/07/16 11:53:30;;;;;;;11.00;5.65;;;14.90;99.90;;;;;;5070391;28;20676;-76
2023/07/16 11:55:59;;;;;;;11.65;5.55;;;14.90;99.90;;;;;;5058161;28;20232;-77
2023/07/16 11:58:31;;;;;;;13.13;6.38;;;14.90;99.90;;;;;;5054313;28;20208;-77
2023/07/16 12:01:02;;;;;;;10.95;6.03;;;14.90;99.90;;;;;;5053809;28;20205;-77
2023/07/16 12:03:33;;;;;;;12.65;6.30;;;14.80;99.90;;;;;;5052762;28;20240;-76
2023/07/16 12:06:05;;;;;;;12.60;6.28;;;14.80;99.90;;;;;;5053763;28;20232;-76
2023/07/16 12:08:38;;;;;;;12.57;6.15;;;14.80;99.90;;;;;;5065312;28;20224;-76
2023/07/16 12:11:09;;;;;;;11.93;6.18;;;14.80;99.90;;;;;;5066655;28;20201;-76
2023/07/16 12:13:40;;;;;;;11.77;5.97;;;14.80;99.90;;;;;;5073808;28;20574;-76
2023/07/16 12:16:12;;;;;;;10.02;5.50;;;14.80;99.90;;;;;;5057033;28;20201;-76
2023/07/16 12:18:43;;;;;;;14.48;6.20;;;14.70;99.90;;;;;;5053685;28;20186;-76
2023/07/16 12:21:14;;;;;;;12.13;5.63;;;14.70;99.90;;;;;;5053985;28;20200;-75
2023/07/16 12:23:47;;;;;;;10.55;6.30;;;14.70;99.90;;;;;;5053802;28;20208;-75
2023/07/16 12:26:19;;;;;;;14.77;6.03;;;14.70;99.90;;;;;;5053814;28;20592;-75
2023/07/16 12:28:50;;;;;;;16.55;7.20;;;14.70;99.90;;;;;;5054880;28;20201;-74
2023/07/16 12:31:21;;;;;;;17.83;7.20;;;14.70;99.90;;;;;;5056556;28;20258;-74
2023/07/16 12:33:53;;;;;;;13.23;6.97;;;14.70;99.90;;;;;;5067457;28;20584;-76
2023/07/16 12:36:24;;;;;;;14.07;7.47;;;14.70;99.90;;;;;;5068938;28;20194;-74
2023/07/16 12:38:57;;;;;;;13.65;7.13;;;14.70;99.90;;;;;;5072817;28;20203;-73
2023/07/16 12:41:28;;;;;;;13.30;7.20;;;14.70;99.90;;;;;;5071748;28;20197;-74
2023/07/16 12:43:59;;;;;;;13.48;7.35;;;14.70;99.90;;;;;;5053268;28;20194;-74
2023/07/16 12:46:30;;;;;;;16.73;6.95;;;14.70;99.90;;;;;;5056253;28;20375;-74
2023/07/16 12:49:01;;;;;;;11.65;6.28;;;14.60;99.90;;;;;;5058888;28;20300;-73
2023/07/16 12:51:32;;;;;;;11.77;6.43;;;14.60;99.90;;;;;;5053607;28;20557;-74
2023/07/16 12:54:05;;;;;;;12.02;6.88;;;14.60;99.90;;;;;;5061922;28;20264;-74
2023/07/16 12:56:37;;;;;;;13.77;6.82;;;14.60;99.90;;;;;;5062278;28;20657;-74
2023/07/16 12:59:08;;;;;;;11.77;6.18;;;14.60;99.90;;;;;;5061157;28;20201;-74
2023/07/16 13:01:39;;;;;;;14.48;6.63;;;14.60;99.90;;;;;;5065420;28;20204;-74
2023/07/16 13:04:10;;;;;;;12.02;7.00;;;14.60;99.90;;;;;;5057098;28;20196;-74
2023/07/16 13:06:42;;;;;;;12.73;6.63;;;14.60;99.90;;;;;;5064671;28;20189;-74
2023/07/16 13:09:15;;;;;;;13.10;7.28;;;14.60;99.90;;;;;;5064375;28;20283;-74